sensor_id;sensor_type;location;lat;lon;timestamp;temperature;humidity
39023;DHT22;25908;51.984;5.928;2023-03-23T00:01:32;12.40;99.90
39023;DHT22;25908;51.984;5.928;2023-03-23T00:04:02;12.40;99.90
39023;DHT22;25908;51.984;5.928;2023-03-23T00:06:28;12.40;99.90
39023;DHT22;25908;51.984;5.928;2023-03-23T00:08:58;12.40;99.90
39023;DHT22;25908;51.984;5.928;2023-03-23T00:11:30;12.40;99.90
39023;DHT22;25908;51.984;5.928;2023-03-23T00:13:57;12.50;99.90
39023;DHT22;25908;51.984;5.928;2023-03-23T00:16:27;12.50;99.90
39023;DHT22;25908;51.984;5.928;2023-03-23T00:18:58;12.50;99.90
39023;DHT22;25908;51.984;5.928;2023-03-23T00:21:26;12.50;99.90
39023;DHT22;25908;51.984;5.928;2023-03-23T00:24:02;12.50;99.90
39023;DHT22;25908;51.984;5.928;2023-03-23T00:26:28;12.40;99.90
39023;DHT22;25908;51.984;5.928;2023-03-23T00:28:55;12.50;99.90
39023;DHT22;25908;51.984;5.928;2023-03-23T00:31:21;12.50;99.90
39023;DHT22;25908;51.984;5.928;2023-03-23T00:33:47;12.50;99.90
39023;DHT22;25908;51.984;5.928;2023-03-23T00:36:13;12.50;99.90
39023;DHT22;25908;51.984;5.928;2023-03-23T00:38:40;12.50;99.90
39023;DHT22;25908;51.984;5.928;2023-03-23T00:41:07;12.50;99.90
39023;DHT22;25908;51.984;5.928;2023-03-23T00:43:33;12.60;99.90
39023;DHT22;25908;51.984;5.928;2023-03-23T00:46:03;12.60;99.90
39023;DHT22;25908;51.984;5.928;2023-03-23T00:48:34;12.60;99.90
39023;DHT22;25908;51.984;5.928;2023-03-23T00:51:01;12.60;99.90
39023;DHT22;25908;51.984;5.928;2023-03-23T00:53:26;12.60;99.90
39023;DHT22;25908;51.984;5.928;2023-03-23T00:55:52;12.60;99.90
39023;DHT22;25908;51.984;5.928;2023-03-23T00:58:17;12.60;99.90
39023;DHT22;25908;51.984;5.928;2023-03-23T01:00:43;12.60;99.90
39023;DHT22;25908;51.984;5.928;2023-03-23T01:03:09;12.60;99.90
39023;DHT22;25908;51.984;5.928;2023-03-23T01:05:44;12.60;99.90
39023;DHT22;25908;51.984;5.928;2023-03-23T01:08:13;12.60;99.90
39023;DHT22;25908;51.984;5.928;2023-03-23T01:10:39;12.60;99.90
39023;DHT22;25908;51.984;5.928;2023-03-23T01:13:06;12.60;99.90
39023;DHT22;25908;51.984;5.928;2023-03-23T01:15:32;12.60;99.90
39023;DHT22;25908;51.984;5.928;2023-03-23T01:17:57;12.60;99.90
39023;DHT22;25908;51.984;5.928;2023-03-23T01:20:24;12.60;99.90
39023;DHT22;25908;51.984;5.928;2023-03-23T01:22:52;12.60;99.90
39023;DHT22;25908;51.984;5.928;2023-03-23T01:25:18;12.60;99.90
39023;DHT22;25908;51.984;5.928;2023-03-23T01:27:44;12.60;99.90
39023;DHT22;25908;51.984;5.928;2023-03-23T01:30:11;12.60;99.90
39023;DHT22;25908;51.984;5.928;2023-03-23T01:32:38;12.60;99.90
39023;DHT22;25908;51.984;5.928;2023-03-23T01:35:04;12.50;99.90
39023;DHT22;25908;51.984;5.928;2023-03-23T01:37:30;12.50;99.90
39023;DHT22;25908;51.984;5.928;2023-03-23T01:39:56;12.50;99.90
39023;DHT22;25908;51.984;5.928;2023-03-23T01:42:31;12.50;99.90
39023;DHT22;25908;51.984;5.928;2023-03-23T01:47:45;12.50;99.90
39023;DHT22;25908;51.984;5.928;2023-03-23T01:50:11;12.60;99.90
39023;DHT22;25908;51.984;5.928;2023-03-23T01:52:36;12.50;99.90
39023;DHT22;25908;51.984;5.928;2023-03-23T01:55:03;12.50;99.90
39023;DHT22;25908;51.984;5.928;2023-03-23T01:57:30;12.50;99.90
39023;DHT22;25908;51.984;5.928;2023-03-23T01:59:58;12.50;99.90
39023;DHT22;25908;51.984;5.928;2023-03-23T02:02:32;12.50;99.90
39023;DHT22;25908;51.984;5.928;2023-03-23T02:05:04;12.50;99.90
39023;DHT22;25908;51.984;5.928;2023-03-23T02:07:34;12.60;99.90
39023;DHT22;25908;51.984;5.928;2023-03-23T02:10:00;12.50;99.90
39023;DHT22;25908;51.984;5.928;2023-03-23T02:12:26;12.50;99.90
39023;DHT22;25908;51.984;5.928;2023-03-23T02:14:52;12.60;99.90
39023;DHT22;25908;51.984;5.928;2023-03-23T02:17:35;12.60;99.90
39023;DHT22;25908;51.984;5.928;2023-03-23T02:34:00;12.70;99.90
39023;DHT22;25908;51.984;5.928;2023-03-23T02:36:37;12.70;99.90
39023;DHT22;25908;51.984;5.928;2023-03-23T02:39:13;12.70;99.90
39023;DHT22;25908;51.984;5.928;2023-03-23T02:41:47;12.70;99.90
39023;DHT22;25908;51.984;5.928;2023-03-23T02:44:15;12.70;99.90
39023;DHT22;25908;51.984;5.928;2023-03-23T02:46:42;12.70;99.90
39023;DHT22;25908;51.984;5.928;2023-03-23T02:49:09;12.70;99.90
39023;DHT22;25908;51.984;5.928;2023-03-23T02:51:37;12.70;99.90
39023;DHT22;25908;51.984;5.928;2023-03-23T02:54:04;12.70;99.90
39023;DHT22;25908;51.984;5.928;2023-03-23T02:56:31;12.70;99.90
39023;DHT22;25908;51.984;5.928;2023-03-23T02:58:58;12.70;99.90
39023;DHT22;25908;51.984;5.928;2023-03-23T03:04:00;12.70;99.90
39023;DHT22;25908;51.984;5.928;2023-03-23T03:12:05;12.70;99.90
39023;DHT22;25908;51.984;5.928;2023-03-23T03:14:54;12.70;99.90
39023;DHT22;25908;51.984;5.928;2023-03-23T03:17:26;12.70;99.90
39023;DHT22;25908;51.984;5.928;2023-03-23T03:20:01;12.80;99.90
39023;DHT22;25908;51.984;5.928;2023-03-23T03:22:33;12.80;99.90
39023;DHT22;25908;51.984;5.928;2023-03-23T03:25:00;12.80;99.90
39023;DHT22;25908;51.984;5.928;2023-03-23T03:27:27;12.80;99.90
39023;DHT22;25908;51.984;5.928;2023-03-23T03:29:56;12.80;99.90
39023;DHT22;25908;51.984;5.928;2023-03-23T03:32:41;12.80;99.90
39023;DHT22;25908;51.984;5.928;2023-03-23T03:35:09;12.70;99.90
39023;DHT22;25908;51.984;5.928;2023-03-23T03:37:35;12.80;99.90
39023;DHT22;25908;51.984;5.928;2023-03-23T03:40:11;12.80;99.90
39023;DHT22;25908;51.984;5.928;2023-03-23T03:42:39;12.80;99.90
39023;DHT22;25908;51.984;5.928;2023-03-23T03:45:06;12.80;99.90
39023;DHT22;25908;51.984;5.928;2023-03-23T03:47:32;12.80;99.90
39023;DHT22;25908;51.984;5.928;2023-03-23T03:49:58;12.80;99.90
39023;DHT22;25908;51.984;5.928;2023-03-23T03:52:23;12.90;99.90
39023;DHT22;25908;51.984;5.928;2023-03-23T03:54:49;12.80;99.90
39023;DHT22;25908;51.984;5.928;2023-03-23T03:57:15;12.80;99.90
39023;DHT22;25908;51.984;5.928;2023-03-23T03:59:43;12.80;99.90
39023;DHT22;25908;51.984;5.928;2023-03-23T04:02:09;12.80;99.90
39023;DHT22;25908;51.984;5.928;2023-03-23T04:04:34;12.80;99.90
39023;DHT22;25908;51.984;5.928;2023-03-23T04:07:00;12.80;99.90
39023;DHT22;25908;51.984;5.928;2023-03-23T04:09:28;12.80;99.90
39023;DHT22;25908;51.984;5.928;2023-03-23T04:11:53;12.90;99.90
39023;DHT22;25908;51.984;5.928;2023-03-23T04:14:19;12.80;99.90
39023;DHT22;25908;51.984;5.928;2023-03-23T04:16:44;12.90;99.90
39023;DHT22;25908;51.984;5.928;2023-03-23T04:19:10;12.90;99.90
39023;DHT22;25908;51.984;5.928;2023-03-23T04:21:37;12.90;99.90
39023;DHT22;25908;51.984;5.928;2023-03-23T04:24:03;13.00;99.90
39023;DHT22;25908;51.984;5.928;2023-03-23T04:26:29;12.90;99.90
39023;DHT22;25908;51.984;5.928;2023-03-23T04:28:55;12.90;99.90
39023;DHT22;25908;51.984;5.928;2023-03-23T04:31:22;12.90;99.90
39023;DHT22;25908;51.984;5.928;2023-03-23T04:33:50;13.00;99.90
39023;DHT22;25908;51.984;5.928;2023-03-23T04:36:18;13.00;99.90
39023;DHT22;25908;51.984;5.928;2023-03-23T04:38:43;12.90;99.90
39023;DHT22;25908;51.984;5.928;2023-03-23T04:41:09;13.00;99.90
39023;DHT22;25908;51.984;5.928;2023-03-23T04:43:35;13.00;99.90
39023;DHT22;25908;51.984;5.928;2023-03-23T04:46:07;13.00;99.90
39023;DHT22;25908;51.984;5.928;2023-03-23T04:48:34;13.00;99.90
39023;DHT22;25908;51.984;5.928;2023-03-23T04:51:02;13.00;99.90
39023;DHT22;25908;51.984;5.928;2023-03-23T04:53:30;13.00;99.90
39023;DHT22;25908;51.984;5.928;2023-03-23T04:55:55;13.00;99.90
39023;DHT22;25908;51.984;5.928;2023-03-23T04:58:21;13.00;99.90
39023;DHT22;25908;51.984;5.928;2023-03-23T05:00:48;13.10;99.90
39023;DHT22;25908;51.984;5.928;2023-03-23T05:03:16;13.00;99.90
39023;DHT22;25908;51.984;5.928;2023-03-23T05:05:42;13.10;99.90
39023;DHT22;25908;51.984;5.928;2023-03-23T05:08:08;13.10;99.90
39023;DHT22;25908;51.984;5.928;2023-03-23T05:10:33;13.10;99.90
39023;DHT22;25908;51.984;5.928;2023-03-23T05:12:59;13.10;99.90
39023;DHT22;25908;51.984;5.928;2023-03-23T05:15:25;13.10;99.90
39023;DHT22;25908;51.984;5.928;2023-03-23T05:17:53;13.10;99.90
39023;DHT22;25908;51.984;5.928;2023-03-23T05:20:19;13.10;99.90
39023;DHT22;25908;51.984;5.928;2023-03-23T05:22:46;13.10;99.90
39023;DHT22;25908;51.984;5.928;2023-03-23T05:25:15;13.10;99.90
39023;DHT22;25908;51.984;5.928;2023-03-23T05:27:41;13.10;99.90
39023;DHT22;25908;51.984;5.928;2023-03-23T05:30:14;13.10;99.90
39023;DHT22;25908;51.984;5.928;2023-03-23T05:32:45;13.10;99.90
39023;DHT22;25908;51.984;5.928;2023-03-23T05:35:12;13.10;99.90
39023;DHT22;25908;51.984;5.928;2023-03-23T05:37:38;13.10;99.90
39023;DHT22;25908;51.984;5.928;2023-03-23T05:40:05;13.10;99.90
39023;DHT22;25908;51.984;5.928;2023-03-23T05:42:34;13.10;99.90
39023;DHT22;25908;51.984;5.928;2023-03-23T05:45:02;13.10;99.90
39023;DHT22;25908;51.984;5.928;2023-03-23T05:47:28;13.10;99.90
39023;DHT22;25908;51.984;5.928;2023-03-23T05:49:54;13.10;99.90
39023;DHT22;25908;51.984;5.928;2023-03-23T05:52:20;13.10;99.90
39023;DHT22;25908;51.984;5.928;2023-03-23T05:54:46;13.10;99.90
39023;DHT22;25908;51.984;5.928;2023-03-23T05:57:12;13.00;99.90
39023;DHT22;25908;51.984;5.928;2023-03-23T05:59:37;13.10;99.90
39023;DHT22;25908;51.984;5.928;2023-03-23T06:02:04;13.10;99.90
39023;DHT22;25908;51.984;5.928;2023-03-23T06:04:30;13.10;99.90
39023;DHT22;25908;51.984;5.928;2023-03-23T06:07:00;13.10;99.90
39023;DHT22;25908;51.984;5.928;2023-03-23T06:09:26;13.10;99.90
39023;DHT22;25908;51.984;5.928;2023-03-23T06:11:52;13.10;99.90
39023;DHT22;25908;51.984;5.928;2023-03-23T06:14:17;13.10;99.90
39023;DHT22;25908;51.984;5.928;2023-03-23T06:16:43;13.10;99.90
39023;DHT22;25908;51.984;5.928;2023-03-23T06:19:09;13.20;99.90
39023;DHT22;25908;51.984;5.928;2023-03-23T06:21:36;13.20;99.90
39023;DHT22;25908;51.984;5.928;2023-03-23T06:24:03;13.20;99.90
39023;DHT22;25908;51.984;5.928;2023-03-23T06:26:34;13.20;99.90
39023;DHT22;25908;51.984;5.928;2023-03-23T06:29:00;13.20;99.90
39023;DHT22;25908;51.984;5.928;2023-03-23T06:31:27;13.30;99.90
39023;DHT22;25908;51.984;5.928;2023-03-23T06:33:53;13.30;99.90
39023;DHT22;25908;51.984;5.928;2023-03-23T06:36:19;13.30;99.90
39023;DHT22;25908;51.984;5.928;2023-03-23T06:38:45;13.30;99.90
39023;DHT22;25908;51.984;5.928;2023-03-23T06:41:11;13.30;99.90
39023;DHT22;25908;51.984;5.928;2023-03-23T06:43:37;13.30;99.90
39023;DHT22;25908;51.984;5.928;2023-03-23T06:46:05;13.30;99.90
39023;DHT22;25908;51.984;5.928;2023-03-23T06:48:31;13.30;99.90
39023;DHT22;25908;51.984;5.928;2023-03-23T06:50:57;13.30;99.90
39023;DHT22;25908;51.984;5.928;2023-03-23T06:53:23;13.30;99.90
39023;DHT22;25908;51.984;5.928;2023-03-23T06:55:48;13.20;99.90
39023;DHT22;25908;51.984;5.928;2023-03-23T06:58:14;13.30;99.90
39023;DHT22;25908;51.984;5.928;2023-03-23T07:00:40;13.30;99.90
39023;DHT22;25908;51.984;5.928;2023-03-23T07:03:06;13.20;99.90
39023;DHT22;25908;51.984;5.928;2023-03-23T07:05:33;13.20;99.90
39023;DHT22;25908;51.984;5.928;2023-03-23T07:07:58;13.20;99.90
39023;DHT22;25908;51.984;5.928;2023-03-23T07:10:24;13.20;99.90
39023;DHT22;25908;51.984;5.928;2023-03-23T07:12:50;13.20;99.90
39023;DHT22;25908;51.984;5.928;2023-03-23T07:15:15;13.20;99.90
39023;DHT22;25908;51.984;5.928;2023-03-23T07:17:41;13.20;99.90
39023;DHT22;25908;51.984;5.928;2023-03-23T07:20:07;13.20;99.90
39023;DHT22;25908;51.984;5.928;2023-03-23T07:22:33;13.20;99.90
39023;DHT22;25908;51.984;5.928;2023-03-23T07:24:59;13.20;99.90
39023;DHT22;25908;51.984;5.928;2023-03-23T07:27:25;13.30;99.90
39023;DHT22;25908;51.984;5.928;2023-03-23T07:29:51;13.30;99.90
39023;DHT22;25908;51.984;5.928;2023-03-23T07:32:16;13.30;99.90
39023;DHT22;25908;51.984;5.928;2023-03-23T07:34:42;13.30;99.90
39023;DHT22;25908;51.984;5.928;2023-03-23T07:37:09;13.40;99.90
39023;DHT22;25908;51.984;5.928;2023-03-23T07:39:35;13.30;99.90
39023;DHT22;25908;51.984;5.928;2023-03-23T07:42:00;13.30;99.90
39023;DHT22;25908;51.984;5.928;2023-03-23T07:44:26;13.40;99.90
39023;DHT22;25908;51.984;5.928;2023-03-23T07:46:52;13.40;99.90
39023;DHT22;25908;51.984;5.928;2023-03-23T07:49:18;13.40;99.90
39023;DHT22;25908;51.984;5.928;2023-03-23T07:51:44;13.50;99.90
39023;DHT22;25908;51.984;5.928;2023-03-23T07:54:11;13.50;99.90
39023;DHT22;25908;51.984;5.928;2023-03-23T07:56:37;13.40;99.90
39023;DHT22;25908;51.984;5.928;2023-03-23T07:59:05;13.40;99.90
39023;DHT22;25908;51.984;5.928;2023-03-23T08:01:31;13.40;99.90
39023;DHT22;25908;51.984;5.928;2023-03-23T08:03:57;13.30;99.90
39023;DHT22;25908;51.984;5.928;2023-03-23T08:06:23;13.20;99.90
39023;DHT22;25908;51.984;5.928;2023-03-23T08:08:49;13.20;99.90
39023;DHT22;25908;51.984;5.928;2023-03-23T08:11:16;13.20;99.90
39023;DHT22;25908;51.984;5.928;2023-03-23T08:13:42;13.20;99.90
39023;DHT22;25908;51.984;5.928;2023-03-23T08:16:09;13.00;99.90
39023;DHT22;25908;51.984;5.928;2023-03-23T08:18:35;13.00;99.90
39023;DHT22;25908;51.984;5.928;2023-03-23T08:21:02;12.90;99.90
39023;DHT22;25908;51.984;5.928;2023-03-23T08:23:30;12.90;99.90
39023;DHT22;25908;51.984;5.928;2023-03-23T08:25:56;12.90;99.90
39023;DHT22;25908;51.984;5.928;2023-03-23T08:28:22;13.00;99.90
39023;DHT22;25908;51.984;5.928;2023-03-23T08:30:48;13.00;99.90
39023;DHT22;25908;51.984;5.928;2023-03-23T08:33:13;13.10;99.90
39023;DHT22;25908;51.984;5.928;2023-03-23T08:35:39;13.10;99.90
39023;DHT22;25908;51.984;5.928;2023-03-23T08:38:05;13.10;99.90
39023;DHT22;25908;51.984;5.928;2023-03-23T08:40:31;13.10;99.90
39023;DHT22;25908;51.984;5.928;2023-03-23T08:42:58;13.10;99.90
39023;DHT22;25908;51.984;5.928;2023-03-23T08:45:25;13.10;99.90
39023;DHT22;25908;51.984;5.928;2023-03-23T08:47:51;13.10;99.90
39023;DHT22;25908;51.984;5.928;2023-03-23T08:50:21;13.10;99.90
39023;DHT22;25908;51.984;5.928;2023-03-23T08:52:48;13.10;99.90
39023;DHT22;25908;51.984;5.928;2023-03-23T08:55:15;13.20;99.90
39023;DHT22;25908;51.984;5.928;2023-03-23T08:57:41;13.20;99.90
39023;DHT22;25908;51.984;5.928;2023-03-23T09:00:12;13.30;99.90
39023;DHT22;25908;51.984;5.928;2023-03-23T09:02:49;13.30;99.90
39023;DHT22;25908;51.984;5.928;2023-03-23T09:05:17;13.30;99.90
39023;DHT22;25908;51.984;5.928;2023-03-23T09:07:46;13.20;99.90
39023;DHT22;25908;51.984;5.928;2023-03-23T09:10:12;13.30;99.90
39023;DHT22;25908;51.984;5.928;2023-03-23T09:12:39;13.30;99.90
39023;DHT22;25908;51.984;5.928;2023-03-23T09:15:06;13.30;99.90
39023;DHT22;25908;51.984;5.928;2023-03-23T09:17:46;13.20;99.90
39023;DHT22;25908;51.984;5.928;2023-03-23T09:20:15;13.20;99.90
39023;DHT22;25908;51.984;5.928;2023-03-23T09:22:43;13.30;99.90
39023;DHT22;25908;51.984;5.928;2023-03-23T09:25:11;13.30;99.90
39023;DHT22;25908;51.984;5.928;2023-03-23T09:27:38;13.50;99.90
39023;DHT22;25908;51.984;5.928;2023-03-23T09:30:10;13.80;99.90
39023;DHT22;25908;51.984;5.928;2023-03-23T09:32:37;13.90;99.90
39023;DHT22;25908;51.984;5.928;2023-03-23T09:35:05;14.00;99.90
39023;DHT22;25908;51.984;5.928;2023-03-23T09:37:33;13.90;99.90
39023;DHT22;25908;51.984;5.928;2023-03-23T09:40:01;14.00;99.90
39023;DHT22;25908;51.984;5.928;2023-03-23T09:42:39;14.20;99.90
39023;DHT22;25908;51.984;5.928;2023-03-23T09:45:19;14.60;99.90
39023;DHT22;25908;51.984;5.928;2023-03-23T09:48:03;14.70;99.90
39023;DHT22;25908;51.984;5.928;2023-03-23T09:50:31;14.70;99.90
39023;DHT22;25908;51.984;5.928;2023-03-23T09:53:15;14.70;99.90
39023;DHT22;25908;51.984;5.928;2023-03-23T09:55:42;14.80;99.90
39023;DHT22;25908;51.984;5.928;2023-03-23T09:58:31;15.20;99.90
39023;DHT22;25908;51.984;5.928;2023-03-23T10:01:31;15.50;99.90
39023;DHT22;25908;51.984;5.928;2023-03-23T10:04:03;15.90;99.90
39023;DHT22;25908;51.984;5.928;2023-03-23T10:06:30;16.10;99.90
39023;DHT22;25908;51.984;5.928;2023-03-23T10:08:58;16.00;99.90
39023;DHT22;25908;51.984;5.928;2023-03-23T10:11:51;15.90;99.90
39023;DHT22;25908;51.984;5.928;2023-03-23T10:14:44;15.90;99.90
39023;DHT22;25908;51.984;5.928;2023-03-23T10:17:23;16.10;99.90
39023;DHT22;25908;51.984;5.928;2023-03-23T10:22:52;16.40;99.90
39023;DHT22;25908;51.984;5.928;2023-03-23T10:25:26;16.70;99.90
39023;DHT22;25908;51.984;5.928;2023-03-23T10:28:16;16.90;99.60
39023;DHT22;25908;51.984;5.928;2023-03-23T10:30:48;16.90;99.60
39023;DHT22;25908;51.984;5.928;2023-03-23T10:38:36;16.50;99.30
39023;DHT22;25908;51.984;5.928;2023-03-23T10:41:10;16.30;99.30
39023;DHT22;25908;51.984;5.928;2023-03-23T10:43:38;16.20;98.70
39023;DHT22;25908;51.984;5.928;2023-03-23T10:46:33;16.00;99.00
39023;DHT22;25908;51.984;5.928;2023-03-23T10:49:06;15.90;99.60
39023;DHT22;25908;51.984;5.928;2023-03-23T10:51:40;15.90;99.40
39023;DHT22;25908;51.984;5.928;2023-03-23T10:54:07;15.90;99.80
39023;DHT22;25908;51.984;5.928;2023-03-23T10:56:42;15.90;99.40
39023;DHT22;25908;51.984;5.928;2023-03-23T10:59:18;15.90;98.90
39023;DHT22;25908;51.984;5.928;2023-03-23T11:01:48;15.90;99.10
39023;DHT22;25908;51.984;5.928;2023-03-23T11:04:16;15.90;98.70
39023;DHT22;25908;51.984;5.928;2023-03-23T11:06:50;16.00;99.10
39023;DHT22;25908;51.984;5.928;2023-03-23T11:09:19;16.10;98.30
39023;DHT22;25908;51.984;5.928;2023-03-23T11:11:50;16.30;98.10
39023;DHT22;25908;51.984;5.928;2023-03-23T11:14:25;16.30;97.60
39023;DHT22;25908;51.984;5.928;2023-03-23T11:16:53;16.40;97.00
39023;DHT22;25908;51.984;5.928;2023-03-23T11:19:28;16.40;97.50
39023;DHT22;25908;51.984;5.928;2023-03-23T11:22:13;16.40;97.90
39023;DHT22;25908;51.984;5.928;2023-03-23T11:24:43;16.30;96.50
39023;DHT22;25908;51.984;5.928;2023-03-23T11:27:10;16.10;97.00
39023;DHT22;25908;51.984;5.928;2023-03-23T11:29:52;16.00;96.80
39023;DHT22;25908;51.984;5.928;2023-03-23T11:32:22;15.90;96.80
39023;DHT22;25908;51.984;5.928;2023-03-23T11:34:53;16.00;96.90
39023;DHT22;25908;51.984;5.928;2023-03-23T11:37:40;16.10;96.90
39023;DHT22;25908;51.984;5.928;2023-03-23T11:50:36;16.40;96.50
39023;DHT22;25908;51.984;5.928;2023-03-23T11:53:16;16.30;97.30
39023;DHT22;25908;51.984;5.928;2023-03-23T11:58:18;16.20;97.80
39023;DHT22;25908;51.984;5.928;2023-03-23T12:01:01;16.10;97.30
39023;DHT22;25908;51.984;5.928;2023-03-23T12:03:41;16.00;97.70
39023;DHT22;25908;51.984;5.928;2023-03-23T12:06:13;15.80;98.40
39023;DHT22;25908;51.984;5.928;2023-03-23T12:11:49;15.80;99.20
39023;DHT22;25908;51.984;5.928;2023-03-23T12:14:33;15.70;99.10
39023;DHT22;25908;51.984;5.928;2023-03-23T12:17:09;15.60;99.50
39023;DHT22;25908;51.984;5.928;2023-03-23T12:22:26;15.70;99.90
39023;DHT22;25908;51.984;5.928;2023-03-23T12:25:08;15.60;99.90
39023;DHT22;25908;51.984;5.928;2023-03-23T12:27:44;15.60;99.90
39023;DHT22;25908;51.984;5.928;2023-03-23T12:30:21;15.70;99.90
39023;DHT22;25908;51.984;5.928;2023-03-23T12:38:29;16.20;99.90
39023;DHT22;25908;51.984;5.928;2023-03-23T12:41:14;16.20;99.90
39023;DHT22;25908;51.984;5.928;2023-03-23T12:49:22;16.20;99.90
39023;DHT22;25908;51.984;5.928;2023-03-23T12:54:40;16.20;99.80
39023;DHT22;25908;51.984;5.928;2023-03-23T12:57:18;16.20;99.80
39023;DHT22;25908;51.984;5.928;2023-03-23T13:02:26;16.00;99.10
39023;DHT22;25908;51.984;5.928;2023-03-23T13:07:29;15.70;99.90
39023;DHT22;25908;51.984;5.928;2023-03-23T13:10:12;15.60;99.90
39023;DHT22;25908;51.984;5.928;2023-03-23T13:12:41;15.40;99.90
39023;DHT22;25908;51.984;5.928;2023-03-23T13:23:33;15.00;99.90
39023;DHT22;25908;51.984;5.928;2023-03-23T13:26:17;14.70;99.90
39023;DHT22;25908;51.984;5.928;2023-03-23T13:29:00;14.60;99.90
39023;DHT22;25908;51.984;5.928;2023-03-23T13:31:35;14.50;99.90
39023;DHT22;25908;51.984;5.928;2023-03-23T13:36:39;14.30;99.90
39023;DHT22;25908;51.984;5.928;2023-03-23T13:39:17;14.40;99.90
39023;DHT22;25908;51.984;5.928;2023-03-23T13:44:26;14.40;99.90
39023;DHT22;25908;51.984;5.928;2023-03-23T13:47:34;14.50;99.90
39023;DHT22;25908;51.984;5.928;2023-03-23T13:50:05;14.60;99.90
39023;DHT22;25908;51.984;5.928;2023-03-23T14:03:01;14.80;99.90
39023;DHT22;25908;51.984;5.928;2023-03-23T14:08:52;14.70;99.90
39023;DHT22;25908;51.984;5.928;2023-03-23T14:11:09;14.80;99.90
39023;DHT22;25908;51.984;5.928;2023-03-23T14:18:47;14.60;99.90
39023;DHT22;25908;51.984;5.928;2023-03-23T14:21:16;14.50;99.90
39023;DHT22;25908;51.984;5.928;2023-03-23T14:23:42;14.50;99.90
39023;DHT22;25908;51.984;5.928;2023-03-23T14:26:26;14.50;99.90
39023;DHT22;25908;51.984;5.928;2023-03-23T14:28:53;14.40;99.90
39023;DHT22;25908;51.984;5.928;2023-03-23T14:31:26;14.30;99.90
39023;DHT22;25908;51.984;5.928;2023-03-23T14:33:56;14.30;99.90
39023;DHT22;25908;51.984;5.928;2023-03-23T14:36:28;14.30;99.90
39023;DHT22;25908;51.984;5.928;2023-03-23T14:39:18;14.30;99.90
39023;DHT22;25908;51.984;5.928;2023-03-23T14:41:44;14.30;99.90
39023;DHT22;25908;51.984;5.928;2023-03-23T14:44:15;14.40;99.90
39023;DHT22;25908;51.984;5.928;2023-03-23T14:46:43;14.50;99.90
39023;DHT22;25908;51.984;5.928;2023-03-23T14:49:18;14.60;99.90
39023;DHT22;25908;51.984;5.928;2023-03-23T14:51:53;14.60;99.90
39023;DHT22;25908;51.984;5.928;2023-03-23T14:54:24;14.60;99.90
39023;DHT22;25908;51.984;5.928;2023-03-23T14:56:50;14.60;99.90
39023;DHT22;25908;51.984;5.928;2023-03-23T14:59:16;14.70;99.90
39023;DHT22;25908;51.984;5.928;2023-03-23T15:01:42;14.70;99.90
39023;DHT22;25908;51.984;5.928;2023-03-23T15:04:19;14.70;99.90
39023;DHT22;25908;51.984;5.928;2023-03-23T15:06:55;14.70;99.90
39023;DHT22;25908;51.984;5.928;2023-03-23T15:09:23;14.70;99.90
39023;DHT22;25908;51.984;5.928;2023-03-23T15:14:22;14.70;99.90
39023;DHT22;25908;51.984;5.928;2023-03-23T15:16:52;14.80;99.90
39023;DHT22;25908;51.984;5.928;2023-03-23T15:19:43;14.80;99.90
39023;DHT22;25908;51.984;5.928;2023-03-23T15:22:19;14.80;99.90
39023;DHT22;25908;51.984;5.928;2023-03-23T15:24:45;14.90;99.90
39023;DHT22;25908;51.984;5.928;2023-03-23T15:27:24;14.90;99.90
39023;DHT22;25908;51.984;5.928;2023-03-23T15:30:00;15.00;99.90
39023;DHT22;25908;51.984;5.928;2023-03-23T15:32:41;15.00;99.90
39023;DHT22;25908;51.984;5.928;2023-03-23T15:35:16;15.00;99.90
39023;DHT22;25908;51.984;5.928;2023-03-23T15:37:44;15.00;99.90
39023;DHT22;25908;51.984;5.928;2023-03-23T15:40:16;15.10;99.90
39023;DHT22;25908;51.984;5.928;2023-03-23T15:42:42;15.10;99.90
39023;DHT22;25908;51.984;5.928;2023-03-23T15:52:37;15.10;99.90
39023;DHT22;25908;51.984;5.928;2023-03-23T15:55:03;15.10;99.90
39023;DHT22;25908;51.984;5.928;2023-03-23T15:57:41;15.10;99.90
39023;DHT22;25908;51.984;5.928;2023-03-23T16:00:08;15.10;99.90
39023;DHT22;25908;51.984;5.928;2023-03-23T16:02:34;15.10;99.90
39023;DHT22;25908;51.984;5.928;2023-03-23T16:05:00;15.10;99.90
39023;DHT22;25908;51.984;5.928;2023-03-23T16:07:26;15.20;99.90
39023;DHT22;25908;51.984;5.928;2023-03-23T16:09:51;15.20;99.90
39023;DHT22;25908;51.984;5.928;2023-03-23T16:12:17;15.10;99.90
39023;DHT22;25908;51.984;5.928;2023-03-23T16:14:42;15.20;99.90
39023;DHT22;25908;51.984;5.928;2023-03-23T16:17:11;15.20;99.90
39023;DHT22;25908;51.984;5.928;2023-03-23T16:19:40;15.20;99.90
39023;DHT22;25908;51.984;5.928;2023-03-23T16:22:05;15.20;99.90
39023;DHT22;25908;51.984;5.928;2023-03-23T16:24:31;15.20;99.90
39023;DHT22;25908;51.984;5.928;2023-03-23T16:26:56;15.20;99.90
39023;DHT22;25908;51.984;5.928;2023-03-23T16:29:22;15.20;99.90
39023;DHT22;25908;51.984;5.928;2023-03-23T16:31:48;15.20;99.90
39023;DHT22;25908;51.984;5.928;2023-03-23T16:34:13;15.20;99.90
39023;DHT22;25908;51.984;5.928;2023-03-23T16:36:39;15.30;99.90
39023;DHT22;25908;51.984;5.928;2023-03-23T16:39:04;15.30;99.90
39023;DHT22;25908;51.984;5.928;2023-03-23T16:41:30;15.30;99.90
39023;DHT22;25908;51.984;5.928;2023-03-23T16:43:56;15.30;99.90
39023;DHT22;25908;51.984;5.928;2023-03-23T16:46:21;15.30;99.90
39023;DHT22;25908;51.984;5.928;2023-03-23T16:48:47;15.20;99.90
39023;DHT22;25908;51.984;5.928;2023-03-23T16:51:12;15.20;99.90
39023;DHT22;25908;51.984;5.928;2023-03-23T16:53:38;15.10;99.90
39023;DHT22;25908;51.984;5.928;2023-03-23T16:56:04;15.10;99.90
39023;DHT22;25908;51.984;5.928;2023-03-23T16:58:30;15.10;99.90
39023;DHT22;25908;51.984;5.928;2023-03-23T17:00:55;15.00;99.90
39023;DHT22;25908;51.984;5.928;2023-03-23T17:03:21;15.00;99.90
39023;DHT22;25908;51.984;5.928;2023-03-23T17:05:48;15.00;99.90
39023;DHT22;25908;51.984;5.928;2023-03-23T17:08:15;15.00;99.90
39023;DHT22;25908;51.984;5.928;2023-03-23T17:10:41;14.90;99.90
39023;DHT22;25908;51.984;5.928;2023-03-23T17:13:08;14.90;99.90
39023;DHT22;25908;51.984;5.928;2023-03-23T17:15:38;14.90;99.90
39023;DHT22;25908;51.984;5.928;2023-03-23T17:18:04;14.90;99.90
39023;DHT22;25908;51.984;5.928;2023-03-23T17:20:30;14.80;99.90
39023;DHT22;25908;51.984;5.928;2023-03-23T17:22:56;14.90;99.90
39023;DHT22;25908;51.984;5.928;2023-03-23T17:25:24;14.80;99.90
39023;DHT22;25908;51.984;5.928;2023-03-23T17:27:50;14.80;99.90
39023;DHT22;25908;51.984;5.928;2023-03-23T17:30:16;14.80;99.90
39023;DHT22;25908;51.984;5.928;2023-03-23T17:32:42;14.80;99.90
39023;DHT22;25908;51.984;5.928;2023-03-23T17:35:08;14.80;99.90
39023;DHT22;25908;51.984;5.928;2023-03-23T17:37:34;14.80;99.90